FA24 weather

Horseshoe Acres Airpark
Indiantown, Florida, United States

Public forecast

Using degrees Fahrenheit for public forecast. Weather courtesy of forecast.io.

Closest aviation weather report (METAR) to Horseshoe Acres Airpark

Closest report is Okeechobee County Airport, 16.3 nm (30.1 km) NW. Retrieved 2019/10/18 22:35 UTC (0 seconds ago):

KOBE 182235Z AUTO 00000KT 10SM CLR 26/23 A2987 RMK AO2 LTG DSNT W

Closest aviation forecast (TAF) to Horseshoe Acres Airpark

Closest forecast is Witham Field, 21.6 nm (39.9 km) ENE. Retrieved 2019/10/18 18:52 UTC (4 hours ago):

TAF KSUA 181750Z 1818/1918 10007KT P6SM VCSH SCT015 BKN030 FM182100 10010KT P6SM VCSH SCT020 BKN080 TEMPO 1901/1904 11012G19KT 4SM SHRA BKN020 BKN040 FM190600 12010KT P6SM -SHRA BKN020 BKN050 FM191400 18018G23KT P6SM SHRA BKN020 OVC070